Time;durP1;ratioP1;P1;durP2;ratioP2;P2;SDS_P1;SDS_P2;PMS_P1;PMS_P2;Temp;Humidity;BMP_temperature;BMP_pressure;BME280_temperature;BME280_humidity;BME280_pressure;Samples;Min_cycle;Max_cycle;Signal;HPM_P1;HPM_P2
2023/02/22 00:00:45;;;;;;;0.60;0.60;;;8.40;99.90;;;;;;5025584;28;20051;-81
2023/02/22 00:03:26;;;;;;;0.63;0.63;;;8.30;99.90;;;;;;5024859;28;20051;-80
2023/02/22 00:05:57;;;;;;;0.75;0.75;;;8.50;99.90;;;;;;5027131;28;20151;-80
2023/02/22 00:08:29;;;;;;;0.50;0.50;;;8.30;99.90;;;;;;5021015;28;20784;-80
2023/02/22 00:11:07;;;;;;;0.82;0.82;;;8.50;99.90;;;;;;5037684;28;20525;-80
2023/02/22 00:13:33;;;;;;;0.70;0.70;;;8.50;99.90;;;;;;5044978;28;20045;-78
2023/02/22 00:15:59;;;;;;;1.48;1.38;;;8.30;99.90;;;;;;5043652;28;20036;-81
2023/02/22 00:18:27;;;;;;;0.60;0.60;;;8.60;99.90;;;;;;5045464;28;20053;-81
2023/02/22 00:20:54;;;;;;;2.47;1.48;;;8.40;99.90;;;;;;5037764;28;20097;-81
2023/02/22 00:23:21;;;;;;;0.57;0.57;;;8.60;99.90;;;;;;5019932;28;20503;-81
2023/02/22 00:25:49;;;;;;;3.70;0.90;;;8.30;99.90;;;;;;5030002;28;20478;-82
2023/02/22 00:28:18;;;;;;;1.02;0.98;;;8.30;99.90;;;;;;5029487;28;20542;-81
2023/02/22 00:30:45;;;;;;;0.57;0.57;;;8.30;99.90;;;;;;5023158;28;20041;-81
2023/02/22 00:33:11;;;;;;;;;;;8.30;99.90;;;;;;5034285;28;20060;-80
2023/02/22 00:35:37;;;;;;;3.92;1.73;;;8.30;99.90;;;;;;5045741;28;19924;-81
2023/02/22 00:38:04;;;;;;;0.80;0.80;;;8.30;99.90;;;;;;5043799;28;20040;-81
2023/02/22 00:40:32;;;;;;;1.48;1.48;;;8.20;99.90;;;;;;5040176;28;20080;-81
2023/02/22 00:43:03;;;;;;;0.50;0.50;;;8.20;99.90;;;;;;5041541;28;20075;-80
2023/02/22 00:45:30;;;;;;;0.80;0.80;;;8.20;99.90;;;;;;5051271;28;20513;-81
2023/02/22 00:47:57;;;;;;;2.10;2.00;;;8.30;99.90;;;;;;5042134;28;20430;-81
2023/02/22 00:50:25;;;;;;;0.50;0.50;;;8.40;99.90;;;;;;5045178;28;20049;-81
2023/02/22 00:52:52;;;;;;;1.83;1.77;;;8.30;99.90;;;;;;5044172;28;20041;-81
2023/02/22 00:55:21;;;;;;;0.60;0.60;;;8.30;99.90;;;;;;5021901;28;20200;-81
2023/02/22 00:57:48;;;;;;;3.35;0.80;;;8.50;99.90;;;;;;5037241;28;20112;-81
2023/02/22 01:00:29;;;;;;;0.50;0.50;;;8.30;99.90;;;;;;5048586;28;21699;-81
2023/02/22 01:02:55;;;;;;;1.02;1.02;;;8.30;99.90;;;;;;5024514;28;20048;-81
2023/02/22 01:05:28;;;;;;;1.80;1.70;;;8.40;99.90;;;;;;5044696;28;20041;-80
2023/02/22 01:07:55;;;;;;;0.70;0.70;;;8.30;99.90;;;;;;5024470;28;20064;-80
2023/02/22 01:10:24;;;;;;;0.60;0.60;;;8.40;99.90;;;;;;5036821;28;20033;-80
2023/02/22 01:12:51;;;;;;;3.47;1.48;;;8.50;99.90;;;;;;5039356;28;20044;-81
2023/02/22 01:15:22;;;;;;;0.80;0.80;;;8.20;99.90;;;;;;5040637;28;20079;-80
2023/02/22 01:17:50;;;;;;;1.02;1.02;;;8.20;99.90;;;;;;5040576;28;20597;-81
2023/02/22 01:20:16;;;;;;;1.15;1.15;;;8.30;99.90;;;;;;5045712;28;20049;-81
2023/02/22 01:22:45;;;;;;;0.43;0.43;;;8.20;99.90;;;;;;5026457;28;21050;-81
2023/02/22 01:25:15;;;;;;;1.38;1.33;;;8.50;99.90;;;;;;5034860;28;20037;-81
2023/02/22 01:27:40;;;;;;;0.55;0.55;;;8.40;99.90;;;;;;5045315;28;20170;-81
2023/02/22 01:30:07;;;;;;;0.50;0.50;;;8.40;99.90;;;;;;5045217;28;20041;-81
2023/02/22 01:32:37;;;;;;;0.80;0.80;;;8.10;99.90;;;;;;5043080;28;20072;-81
2023/02/22 01:35:07;;;;;;;0.38;0.38;;;8.10;99.90;;;;;;5021289;28;20127;-79
2023/02/22 01:37:33;;;;;;;0.68;0.65;;;8.10;99.90;;;;;;5042060;28;20048;-80
2023/02/22 01:39:59;;;;;;;0.60;0.60;;;8.50;99.90;;;;;;5022753;28;20076;-80
2023/02/22 01:42:25;;;;;;;0.70;0.70;;;8.30;99.90;;;;;;5044490;28;20183;-80
2023/02/22 01:45:28;;;;;;;0.50;0.50;;;8.10;99.90;;;;;;5043225;28;20049;-81
2023/02/22 01:48:13;;;;;;;0.88;0.88;;;8.30;99.90;;;;;;5033489;28;20045;-79
2023/02/22 01:50:44;;;;;;;0.40;0.40;;;8.10;99.90;;;;;;5040963;28;20045;-81
2023/02/22 01:53:12;;;;;;;0.98;0.98;;;8.40;99.90;;;;;;5044842;28;20048;-81
2023/02/22 01:55:38;;;;;;;0.52;0.52;;;8.20;99.90;;;;;;5043999;28;20103;-82
2023/02/22 01:58:04;;;;;;;;;;;8.30;99.90;;;;;;5049896;28;20045;-82
2023/02/22 02:00:31;;;;;;;1.00;0.70;;;8.20;99.90;;;;;;5043777;28;20329;-83
2023/02/22 02:03:03;;;;;;;;;;;8.10;99.90;;;;;;5040486;28;20382;-81
2023/02/22 02:05:31;;;;;;;0.50;0.50;;;8.10;99.90;;;;;;5039912;28;19917;-81
2023/02/22 02:08:01;;;;;;;0.80;0.80;;;8.20;99.90;;;;;;5042259;28;20114;-82
2023/02/22 02:10:27;;;;;;;0.40;0.40;;;8.10;99.90;;;;;;5050910;28;20120;-80
2023/02/22 02:12:54;;;;;;;0.40;0.40;;;8.10;99.90;;;;;;5047286;28;20094;-80
2023/02/22 02:15:27;;;;;;;;;;;8.30;99.90;;;;;;5049511;28;20068;-82
2023/02/22 02:17:59;;;;;;;1.30;1.30;;;8.10;99.90;;;;;;5043940;28;19925;-80
2023/02/22 02:20:54;;;;;;;0.50;0.50;;;8.20;99.90;;;;;;5032619;28;20474;-82
2023/02/22 02:23:31;;;;;;;0.50;0.50;;;8.10;99.90;;;;;;5016998;28;20573;-81
2023/02/22 02:26:21;;;;;;;0.50;0.50;;;8.40;99.90;;;;;;5027749;28;20048;-81
2023/02/22 02:29:24;;;;;;;0.40;0.40;;;8.20;99.90;;;;;;5042552;28;20436;-81
2023/02/22 02:32:03;;;;;;;0.50;0.50;;;8.20;99.90;;;;;;5040170;28;20036;-81
2023/02/22 02:34:41;;;;;;;3.65;1.90;;;8.20;99.90;;;;;;5046489;28;20068;-83
2023/02/22 02:38:05;;;;;;;0.85;0.85;;;8.10;99.90;;;;;;5041858;28;20041;-82
2023/02/22 02:40:46;;;;;;;0.55;0.55;;;8.20;99.90;;;;;;4957434;28;20097;-81
2023/02/22 02:43:46;;;;;;;1.48;1.38;;;8.30;99.90;;;;;;5041460;28;20056;-80
2023/02/22 02:46:19;;;;;;;0.60;0.60;;;8.10;99.90;;;;;;5040887;28;20656;-81
2023/02/22 02:48:53;;;;;;;0.50;0.50;;;8.30;99.90;;;;;;5042634;28;20045;-81
2023/02/22 02:51:21;;;;;;;0.90;0.90;;;8.10;99.90;;;;;;5041842;28;20033;-80
2023/02/22 02:53:50;;;;;;;0.90;0.85;;;8.20;99.90;;;;;;5027137;28;20359;-81
2023/02/22 02:56:16;;;;;;;0.40;0.40;;;8.20;99.90;;;;;;5040238;28;20056;-81
2023/02/22 02:58:49;;;;;;;0.52;0.52;;;8.20;99.90;;;;;;5046495;28;20037;-83
2023/02/22 03:01:40;;;;;;;0.43;0.43;;;8.20;99.90;;;;;;5044996;28;20075;-82
2023/02/22 03:04:12;;;;;;;0.55;0.55;;;8.20;99.90;;;;;;5043289;28;20041;-81
2023/02/22 03:06:50;;;;;;;0.55;0.55;;;8.40;99.90;;;;;;5047380;28;20045;-82
2023/02/22 03:09:38;;;;;;;3.35;0.77;;;8.20;99.90;;;;;;5047079;28;20479;-83
2023/02/22 03:12:39;;;;;;;0.70;0.70;;;8.10;99.90;;;;;;5042151;28;20249;-82
2023/02/22 03:15:21;;;;;;;0.60;0.60;;;8.00;99.90;;;;;;5047698;28;20040;-81
2023/02/22 03:17:52;;;;;;;0.80;0.80;;;8.10;99.90;;;;;;5046269;28;20045;-81
2023/02/22 03:20:30;;;;;;;1.00;1.00;;;8.10;99.90;;;;;;5045662;28;20053;-82
2023/02/22 03:23:15;;;;;;;0.73;0.73;;;8.10;99.90;;;;;;5037312;28;20068;-81
2023/02/22 03:25:58;;;;;;;0.60;0.60;;;8.10;99.90;;;;;;5043034;28;20490;-81
2023/02/22 03:28:27;;;;;;;0.65;0.65;;;8.10;99.90;;;;;;5043755;28;20406;-81
2023/02/22 03:31:11;;;;;;;0.63;0.63;;;8.10;99.90;;;;;;5022839;28;20041;-80
2023/02/22 03:33:42;;;;;;;1.10;1.10;;;8.30;99.90;;;;;;5025903;28;20115;-80
2023/02/22 03:36:25;;;;;;;0.45;0.45;;;8.20;99.90;;;;;;5041049;28;20562;-81
2023/02/22 03:38:55;;;;;;;0.50;0.50;;;8.00;99.90;;;;;;5037474;28;20052;-82
2023/02/22 03:41:25;;;;;;;0.52;0.52;;;8.00;99.90;;;;;;5038726;28;20041;-81
2023/02/22 03:43:59;;;;;;;0.52;0.50;;;8.20;99.90;;;;;;5028379;28;20037;-80
2023/02/22 03:46:28;;;;;;;0.50;0.50;;;8.00;99.90;;;;;;5041495;28;20041;-81
2023/02/22 03:49:11;;;;;;;0.45;0.45;;;8.40;99.90;;;;;;5040356;28;20375;-80
2023/02/22 03:51:38;;;;;;;0.45;0.45;;;8.10;99.90;;;;;;5055735;28;20044;-79
2023/02/22 03:54:05;;;;;;;0.40;0.40;;;8.00;99.90;;;;;;5023547;28;20045;-81
2023/02/22 03:56:38;;;;;;;0.50;0.50;;;8.00;99.90;;;;;;5040973;28;20729;-82
2023/02/22 03:59:09;;;;;;;0.50;0.50;;;8.10;99.90;;;;;;5007188;28;20546;-82
2023/02/22 04:01:35;;;;;;;0.50;0.50;;;8.10;99.90;;;;;;5037359;28;20055;-82
2023/02/22 04:04:01;;;;;;;;;;;8.30;99.90;;;;;;5045193;28;20044;-82
2023/02/22 04:06:28;;;;;;;0.40;0.40;;;8.10;99.90;;;;;;5041097;28;19921;-81
2023/02/22 04:08:54;;;;;;;0.50;0.50;;;8.20;99.90;;;;;;5045830;28;20056;-81
2023/02/22 04:11:20;;;;;;;0.50;0.50;;;8.40;99.90;;;;;;5043658;28;20044;-81
2023/02/22 04:13:46;;;;;;;0.73;0.73;;;8.00;99.90;;;;;;5043883;28;20056;-80
2023/02/22 04:16:11;;;;;;;0.60;0.60;;;8.20;99.90;;;;;;5037446;28;20044;-81
2023/02/22 04:18:37;;;;;;;0.60;0.60;;;8.00;99.90;;;;;;5042570;28;20403;-82
2023/02/22 04:21:03;;;;;;;0.40;0.40;;;8.00;99.90;;;;;;5047351;28;20040;-82
2023/02/22 04:23:29;;;;;;;0.50;0.50;;;7.90;99.90;;;;;;5045128;28;20044;-82
2023/02/22 04:25:55;;;;;;;0.60;0.60;;;8.20;99.90;;;;;;5046873;28;20044;-82
2023/02/22 04:28:21;;;;;;;0.80;0.80;;;7.80;99.90;;;;;;5042211;28;20973;-82
2023/02/22 04:30:47;;;;;;;0.55;0.55;;;7.90;99.90;;;;;;5036662;28;20048;-81
2023/02/22 04:33:13;;;;;;;0.82;0.70;;;7.80;99.90;;;;;;5044020;28;20045;-82
2023/02/22 04:35:38;;;;;;;0.63;0.63;;;8.00;99.90;;;;;;5046377;28;20037;-81
2023/02/22 04:38:04;;;;;;;0.60;0.60;;;8.00;99.90;;;;;;5045774;28;20071;-82
2023/02/22 04:40:30;;;;;;;0.43;0.43;;;8.10;99.90;;;;;;5044757;28;20063;-82
2023/02/22 04:42:56;;;;;;;0.60;0.60;;;8.10;99.90;;;;;;5041407;28;20041;-82
2023/02/22 04:45:22;;;;;;;0.40;0.40;;;7.90;99.90;;;;;;5049283;28;20055;-81
2023/02/22 04:47:47;;;;;;;0.57;0.57;;;7.70;99.90;;;;;;5042505;28;20483;-83
2023/02/22 04:50:15;;;;;;;0.57;0.57;;;7.90;99.90;;;;;;5045110;28;20060;-83
2023/02/22 04:52:41;;;;;;;0.40;0.40;;;8.00;99.90;;;;;;5045084;28;20041;-82
2023/02/22 04:55:07;;;;;;;1.02;1.02;;;7.70;99.90;;;;;;5045527;28;20546;-82
2023/02/22 04:57:32;;;;;;;;;;;7.70;99.90;;;;;;5040931;28;20475;-82
2023/02/22 04:59:58;;;;;;;0.40;0.40;;;7.90;99.90;;;;;;5049669;28;19924;-80
2023/02/22 05:02:24;;;;;;;0.60;0.60;;;7.90;99.90;;;;;;5043634;28;20044;-81
2023/02/22 05:04:50;;;;;;;0.40;0.40;;;7.70;99.90;;;;;;5041843;28;20124;-81
2023/02/22 05:07:16;;;;;;;0.65;0.65;;;8.00;99.90;;;;;;5039545;28;20084;-81
2023/02/22 05:09:42;;;;;;;;;;;8.10;99.90;;;;;;5028564;28;20106;-81
2023/02/22 05:12:08;;;;;;;0.45;0.45;;;7.80;99.90;;;;;;5043502;28;19929;-82
2023/02/22 05:14:34;;;;;;;0.57;0.57;;;8.00;99.90;;;;;;5033675;28;20070;-82
2023/02/22 05:17:00;;;;;;;0.40;0.40;;;7.80;99.90;;;;;;5045942;28;20134;-82
2023/02/22 05:19:26;;;;;;;0.40;0.40;;;7.90;99.90;;;;;;5045743;28;20136;-80
2023/02/22 05:21:52;;;;;;;0.73;0.73;;;8.00;99.90;;;;;;5026267;28;20743;-81
2023/02/22 05:24:17;;;;;;;1.35;1.35;;;8.00;99.90;;;;;;5044074;28;20045;-81
2023/02/22 05:26:43;;;;;;;0.60;0.60;;;7.90;99.90;;;;;;5043109;28;20037;-82
2023/02/22 05:29:09;;;;;;;0.57;0.57;;;7.90;99.90;;;;;;5040970;28;20068;-81
2023/02/22 05:31:35;;;;;;;0.50;0.50;;;7.80;99.90;;;;;;5063509;28;20132;-82
2023/02/22 05:34:01;;;;;;;0.57;0.57;;;8.00;99.90;;;;;;5033362;28;20792;-82
2023/02/22 05:36:26;;;;;;;0.40;0.40;;;7.70;99.90;;;;;;5025738;28;20064;-82
2023/02/22 05:38:53;;;;;;;0.40;0.40;;;7.80;99.90;;;;;;5049285;28;20143;-80
2023/02/22 05:41:19;;;;;;;0.70;0.70;;;8.10;99.90;;;;;;5031302;28;20069;-80
2023/02/22 05:43:44;;;;;;;0.40;0.40;;;7.80;99.90;;;;;;5048774;28;20045;-80
2023/02/22 05:46:10;;;;;;;0.55;0.55;;;7.90;99.90;;;;;;5033600;28;20047;-80
2023/02/22 05:48:36;;;;;;;0.40;0.40;;;7.70;99.90;;;;;;5048125;28;20524;-81
2023/02/22 05:51:02;;;;;;;0.55;0.55;;;7.90;99.90;;;;;;5026005;28;20041;-81
2023/02/22 05:53:28;;;;;;;0.60;0.60;;;7.80;99.90;;;;;;5065047;28;20041;-81
2023/02/22 05:55:54;;;;;;;0.63;0.63;;;7.70;99.90;;;;;;5044130;28;20045;-81
2023/02/22 05:58:20;;;;;;;0.90;0.90;;;8.00;99.90;;;;;;5045950;28;20087;-81
2023/02/22 06:00:46;;;;;;;;;;;7.90;99.90;;;;;;5033943;28;20039;-82
2023/02/22 06:03:12;;;;;;;0.70;0.70;;;7.80;99.90;;;;;;5046529;28;20692;-83
2023/02/22 06:05:37;;;;;;;0.82;0.82;;;7.70;99.90;;;;;;5034964;28;20051;-81
2023/02/22 06:08:05;;;;;;;1.35;1.35;;;7.60;99.90;;;;;;5033368;28;20047;-82
2023/02/22 06:10:31;;;;;;;0.45;0.45;;;7.70;99.90;;;;;;5046594;28;20091;-82
2023/02/22 06:12:57;;;;;;;0.63;0.63;;;7.90;99.90;;;;;;5031046;28;20357;-83
2023/02/22 06:15:24;;;;;;;0.77;0.77;;;7.80;99.90;;;;;;5028866;28;20387;-81
2023/02/22 06:17:51;;;;;;;0.60;0.60;;;7.70;99.90;;;;;;5018271;28;20581;-82
2023/02/22 06:20:19;;;;;;;0.77;0.77;;;7.90;99.90;;;;;;5029949;28;20136;-82
2023/02/22 06:22:49;;;;;;;0.47;0.47;;;7.60;99.90;;;;;;5040111;28;20498;-82
2023/02/22 06:25:19;;;;;;;0.80;0.80;;;8.00;99.90;;;;;;5054560;28;20413;-81
2023/02/22 06:27:45;;;;;;;0.90;0.90;;;7.60;99.90;;;;;;5050482;28;20044;-84
2023/02/22 06:30:13;;;;;;;1.55;1.10;;;7.70;99.90;;;;;;5034008;28;20098;-83
2023/02/22 06:32:39;;;;;;;1.02;0.93;;;7.60;99.90;;;;;;5047185;28;20206;-83
2023/02/22 06:35:05;;;;;;;0.80;0.80;;;8.00;99.90;;;;;;5032167;28;20048;-82
2023/02/22 06:37:31;;;;;;;0.57;0.57;;;7.70;99.90;;;;;;5045387;28;20114;-83
2023/02/22 06:39:56;;;;;;;1.15;1.15;;;7.70;99.90;;;;;;5032081;28;20482;-83
2023/02/22 06:42:22;;;;;;;1.20;1.20;;;8.00;99.90;;;;;;5047814;28;20041;-82
2023/02/22 06:44:49;;;;;;;0.52;0.52;;;7.90;99.90;;;;;;5043951;28;20045;-82
2023/02/22 06:47:14;;;;;;;;;;;7.70;99.90;;;;;;5043694;28;20061;-82
2023/02/22 06:49:40;;;;;;;0.55;0.55;;;7.60;99.90;;;;;;5055123;28;19924;-82
2023/02/22 06:52:07;;;;;;;1.75;1.65;;;7.80;99.90;;;;;;5037575;28;20052;-82
2023/02/22 06:54:33;;;;;;;0.93;0.93;;;7.70;99.90;;;;;;5013999;28;20976;-82
2023/02/22 06:56:59;;;;;;;1.25;1.15;;;7.90;99.90;;;;;;5026389;28;20041;-81
2023/02/22 06:59:25;;;;;;;0.73;0.73;;;8.60;99.90;;;;;;5038153;28;20044;-81
2023/02/22 07:01:50;;;;;;;0.88;0.88;;;7.70;99.90;;;;;;5024208;28;20140;-82
2023/02/22 07:04:16;;;;;;;0.95;0.95;;;7.60;99.90;;;;;;5046948;28;20094;-81
2023/02/22 07:06:48;;;;;;;0.95;0.95;;;8.10;99.90;;;;;;5041962;28;20395;-81
2023/02/22 07:09:16;;;;;;;1.98;1.00;;;8.20;99.90;;;;;;5039312;28;20049;-81
2023/02/22 07:11:42;;;;;;;1.77;1.67;;;7.80;99.90;;;;;;5042433;28;20048;-81
2023/02/22 07:14:11;;;;;;;0.70;0.70;;;7.70;99.90;;;;;;5044539;28;20041;-82
2023/02/22 07:16:36;;;;;;;0.88;0.88;;;7.70;99.90;;;;;;5044018;28;20076;-81
2023/02/22 07:19:02;;;;;;;2.00;1.90;;;7.90;99.90;;;;;;5042323;28;20426;-82
2023/02/22 07:21:29;;;;;;;0.85;0.85;;;7.80;99.90;;;;;;5029363;28;20110;-81
2023/02/22 07:23:57;;;;;;;0.75;0.75;;;7.70;99.90;;;;;;5038283;28;20150;-81
2023/02/22 07:26:24;;;;;;;1.88;1.77;;;7.70;99.90;;;;;;5045406;28;20400;-82
2023/02/22 07:28:50;;;;;;;1.13;1.13;;;7.70;99.90;;;;;;5048919;28;20055;-82
2023/02/22 07:31:16;;;;;;;0.68;0.68;;;8.00;99.90;;;;;;5049223;28;20119;-81
2023/02/22 07:33:42;;;;;;;0.60;0.60;;;7.90;99.90;;;;;;5043316;28;20056;-82
2023/02/22 07:36:08;;;;;;;0.73;0.73;;;7.90;99.90;;;;;;5033176;28;20037;-83
2023/02/22 07:38:34;;;;;;;1.27;1.10;;;7.70;99.90;;;;;;5014203;28;20147;-82
2023/02/22 07:41:00;;;;;;;1.05;0.98;;;7.60;99.90;;;;;;5045948;28;20048;-82
2023/02/22 07:43:28;;;;;;;1.27;1.23;;;7.90;99.90;;;;;;5045370;28;20056;-83
2023/02/22 07:45:56;;;;;;;1.17;1.02;;;7.70;99.90;;;;;;5046006;28;20120;-84
2023/02/22 07:48:24;;;;;;;0.90;0.90;;;8.20;99.90;;;;;;5046992;28;20041;-84
2023/02/22 07:50:50;;;;;;;1.27;1.27;;;7.70;99.90;;;;;;5026019;28;20049;-83
2023/02/22 07:53:29;;;;;;;0.80;0.80;;;7.60;99.90;;;;;;5046907;28;20055;-84
2023/02/22 07:55:59;;;;;;;2.28;1.55;;;7.70;99.90;;;;;;5029832;28;20051;-83
2023/02/22 07:58:27;;;;;;;1.98;1.88;;;7.60;99.90;;;;;;5040240;28;20049;-83
2023/02/22 08:00:53;;;;;;;0.90;0.90;;;8.00;99.90;;;;;;5040935;28;20098;-85
2023/02/22 08:03:22;;;;;;;0.65;0.65;;;7.80;99.90;;;;;;5044797;28;20053;-83
2023/02/22 08:05:51;;;;;;;5.88;1.17;;;7.70;99.90;;;;;;5046880;28;20059;-83
2023/02/22 08:08:17;;;;;;;3.60;3.40;;;7.80;99.90;;;;;;5029224;28;20098;-87
2023/02/22 08:10:43;;;;;;;1.08;1.08;;;7.60;99.90;;;;;;5039773;28;20045;-83
2023/02/22 08:13:10;;;;;;;1.73;1.67;;;7.60;99.90;;;;;;5039697;28;20111;-83
2023/02/22 08:15:38;;;;;;;2.33;1.73;;;7.70;99.90;;;;;;5044009;28;20045;-84
2023/02/22 08:18:10;;;;;;;2.67;1.50;;;7.70;99.90;;;;;;5041193;28;20773;-83
2023/02/22 08:20:37;;;;;;;2.38;2.25;;;7.70;99.90;;;;;;5039713;28;20049;-84
2023/02/22 08:23:04;;;;;;;3.38;3.08;;;8.20;99.90;;;;;;5040249;28;20032;-84
2023/02/22 08:25:30;;;;;;;2.95;2.45;;;8.00;99.90;;;;;;5020452;28;20371;-83
2023/02/22 08:28:01;;;;;;;0.40;0.40;;;8.00;99.90;;;;;;5047474;28;20048;-83
2023/02/22 08:30:29;;;;;;;1.23;1.13;;;7.90;99.90;;;;;;5041693;28;20041;-83
2023/02/22 08:32:55;;;;;;;12.93;1.98;;;8.10;99.90;;;;;;5042424;28;20036;-84
2023/02/22 08:35:22;;;;;;;0.85;0.85;;;8.10;99.90;;;;;;5024293;28;20643;-83
2023/02/22 08:37:49;;;;;;;;;;;8.10;99.90;;;;;;5045832;28;20483;-83
2023/02/22 08:40:16;;;;;;;14.27;1.92;;;8.00;99.90;;;;;;5036090;28;20333;-84
2023/02/22 08:42:43;;;;;;;4.72;1.05;;;8.30;99.90;;;;;;5040702;28;20051;-83
2023/02/22 08:45:10;;;;;;;1.38;1.38;;;8.30;99.90;;;;;;5043525;28;20506;-83
2023/02/22 08:47:36;;;;;;;2.10;1.33;;;8.30;99.90;;;;;;5027211;28;20041;-83
2023/02/22 08:50:02;;;;;;;1.75;1.65;;;8.30;99.90;;;;;;5038613;28;20051;-83
2023/02/22 08:52:28;;;;;;;4.05;1.85;;;8.40;99.90;;;;;;5039230;28;20486;-83
2023/02/22 08:54:54;;;;;;;1.85;1.75;;;8.50;99.90;;;;;;5038278;28;20122;-83
2023/02/22 08:57:20;;;;;;;;;;;8.40;99.90;;;;;;5042717;28;20507;-83
2023/02/22 08:59:46;;;;;;;1.10;1.10;;;8.30;99.90;;;;;;5039384;28;19921;-83
2023/02/22 09:02:20;;;;;;;1.13;1.13;;;8.60;99.90;;;;;;5043492;28;20048;-83
2023/02/22 09:04:47;;;;;;;0.82;0.82;;;8.50;99.90;;;;;;5038178;28;20052;-83
2023/02/22 09:07:14;;;;;;;1.45;1.40;;;8.50;99.90;;;;;;5037761;28;20639;-83
2023/02/22 09:09:42;;;;;;;1.67;1.58;;;8.60;99.90;;;;;;5041102;28;20045;-83
2023/02/22 09:12:07;;;;;;;2.15;1.85;;;8.50;99.90;;;;;;5041439;28;20138;-83
2023/02/22 09:14:33;;;;;;;1.85;1.75;;;8.60;99.90;;;;;;5025692;28;20482;-83
2023/02/22 09:16:59;;;;;;;5.15;1.95;;;8.60;99.90;;;;;;5042543;28;20047;-83
2023/02/22 09:19:25;;;;;;;1.95;1.52;;;8.80;99.90;;;;;;5041923;28;20410;-82
2023/02/22 09:21:55;;;;;;;0.88;0.88;;;8.80;99.90;;;;;;5042138;28;20037;-82
2023/02/22 09:24:21;;;;;;;1.88;1.77;;;8.90;99.90;;;;;;5004571;28;20040;-82
2023/02/22 09:26:52;;;;;;;1.75;0.85;;;8.80;99.90;;;;;;5005775;28;20052;-82
2023/02/22 09:29:21;;;;;;;2.75;1.65;;;8.80;99.90;;;;;;5042711;28;20084;-82
2023/02/22 09:31:48;;;;;;;5.68;2.85;;;8.80;99.90;;;;;;5036345;28;20069;-82
2023/02/22 09:34:15;;;;;;;2.35;2.22;;;8.80;99.90;;;;;;5027248;28;20049;-82
2023/02/22 09:36:42;;;;;;;1.05;1.05;;;8.90;99.90;;;;;;5061649;28;20074;-82
2023/02/22 09:39:10;;;;;;;2.30;2.13;;;9.00;99.90;;;;;;5037795;28;20052;-82
2023/02/22 09:41:44;;;;;;;1.95;0.93;;;8.90;99.90;;;;;;5025293;28;20048;-83
2023/02/22 09:44:30;;;;;;;1.73;1.63;;;8.80;99.90;;;;;;5040032;28;20128;-82
2023/02/22 09:46:57;;;;;;;1.38;1.23;;;9.20;99.90;;;;;;5019944;28;20045;-82
2023/02/22 09:49:44;;;;;;;0.75;0.75;;;9.00;99.90;;;;;;5047286;28;20159;-82
2023/02/22 09:52:29;;;;;;;0.60;0.60;;;8.90;99.90;;;;;;5044868;28;20049;-82
2023/02/22 09:55:33;;;;;;;4.88;4.50;;;8.70;99.90;;;;;;5040405;28;20037;-82
2023/02/22 09:58:02;;;;;;;2.08;1.92;;;9.00;99.90;;;;;;5034749;28;20545;-82
2023/02/22 10:00:32;;;;;;;1.92;1.83;;;8.90;99.90;;;;;;5027163;28;20043;-83
2023/02/22 10:03:11;;;;;;;2.95;2.75;;;9.40;99.90;;;;;;5048606;28;20033;-82
2023/02/22 10:05:40;;;;;;;1.92;1.05;;;9.30;99.90;;;;;;5036583;28;20106;-82
2023/02/22 10:08:12;;;;;;;1.92;0.93;;;8.90;99.90;;;;;;5061386;28;20554;-82
2023/02/22 10:10:41;;;;;;;3.42;2.45;;;9.00;99.90;;;;;;5049162;28;20364;-81
2023/02/22 10:13:08;;;;;;;3.05;2.15;;;9.00;99.90;;;;;;5012945;28;20037;-83
2023/02/22 10:15:36;;;;;;;10.27;2.53;;;9.20;99.90;;;;;;5021906;28;20040;-82
2023/02/22 10:18:14;;;;;;;2.45;2.25;;;9.00;99.90;;;;;;5046776;28;20103;-83
2023/02/22 10:20:55;;;;;;;0.63;0.63;;;9.00;99.90;;;;;;5038479;28;20577;-83
2023/02/22 10:23:23;;;;;;;1.25;1.20;;;9.00;99.90;;;;;;5041846;28;20557;-84
2023/02/22 10:26:03;;;;;;;2.50;2.28;;;8.70;99.90;;;;;;5027802;28;20084;-83
2023/02/22 10:28:38;;;;;;;1.60;1.55;;;9.10;99.90;;;;;;5042161;28;20398;-83
2023/02/22 10:31:07;;;;;;;2.15;1.85;;;9.10;99.90;;;;;;5040251;28;20047;-83
2023/02/22 10:33:40;;;;;;;1.80;1.70;;;9.20;99.90;;;;;;5041701;28;20124;-84
2023/02/22 10:36:18;;;;;;;0.95;0.93;;;9.20;99.90;;;;;;5046572;28;20047;-84
2023/02/22 10:39:13;;;;;;;1.77;1.58;;;9.30;99.90;;;;;;5030279;28;20064;-83
2023/02/22 10:41:48;;;;;;;2.33;0.82;;;9.50;99.90;;;;;;5044664;28;20461;-84
2023/02/22 10:44:14;;;;;;;2.55;1.85;;;9.90;99.90;;;;;;5023669;28;20487;-84
2023/02/22 10:46:40;;;;;;;;;;;9.40;99.90;;;;;;5030092;28;20509;-83
2023/02/22 10:49:07;;;;;;;1.00;1.00;;;9.40;99.90;;;;;;5045601;28;19924;-83
2023/02/22 10:51:33;;;;;;;2.45;2.35;;;9.70;99.90;;;;;;5047095;28;20040;-84
2023/02/22 10:54:25;;;;;;;1.80;1.70;;;9.50;99.90;;;;;;5022028;28;20036;-84
2023/02/22 10:56:56;;;;;;;5.05;4.28;;;9.50;99.90;;;;;;5037686;28;20110;-83
2023/02/22 10:59:33;;;;;;;6.30;3.22;;;9.50;99.90;;;;;;5042996;28;20053;-83
2023/02/22 11:02:09;;;;;;;1.30;1.20;;;9.50;99.90;;;;;;5032160;28;20072;-83
2023/02/22 11:04:46;;;;;;;1.80;1.70;;;9.60;99.90;;;;;;5029938;28;20766;-84
2023/02/22 11:07:23;;;;;;;3.00;1.35;;;9.60;99.90;;;;;;5042212;28;20560;-84
2023/02/22 11:10:00;;;;;;;1.67;1.42;;;9.80;99.90;;;;;;5026821;28;20049;-84
2023/02/22 11:12:36;;;;;;;2.15;2.05;;;9.80;99.90;;;;;;5040879;28;20052;-84
2023/02/22 11:15:17;;;;;;;6.90;2.88;;;9.90;99.90;;;;;;5042241;28;20044;-81
2023/02/22 11:17:46;;;;;;;2.00;1.90;;;10.10;99.90;;;;;;5041011;28;20610;-85
2023/02/22 11:20:24;;;;;;;7.38;1.38;;;10.20;99.90;;;;;;5038682;28;20072;-85
2023/02/22 11:23:01;;;;;;;1.23;1.23;;;10.30;99.90;;;;;;5034830;28;20045;-84
2023/02/22 11:25:34;;;;;;;1.75;1.25;;;10.40;99.90;;;;;;5022877;28;20037;-83
2023/02/22 11:28:13;;;;;;;0.77;0.77;;;10.50;99.90;;;;;;5048780;28;20128;-83
2023/02/22 11:30:43;;;;;;;2.30;2.20;;;10.60;99.90;;;;;;5048870;28;20087;-83
2023/02/22 11:33:22;;;;;;;1.30;1.23;;;10.70;99.90;;;;;;5044335;28;20060;-82
2023/02/22 11:35:53;;;;;;;0.77;0.77;;;10.90;99.90;;;;;;5047642;28;20482;-84
2023/02/22 11:38:19;;;;;;;1.33;1.23;;;10.90;99.90;;;;;;5047560;28;20049;-85
2023/02/22 11:40:45;;;;;;;;;;;11.00;99.90;;;;;;5025233;28;20356;-84
2023/02/22 11:43:17;;;;;;;6.63;1.88;;;11.00;99.90;;;;;;5048138;28;19928;-82
2023/02/22 11:46:21;;;;;;;2.42;2.28;;;11.00;99.90;;;;;;5048756;28;20037;-82
2023/02/22 11:48:57;;;;;;;1.60;1.50;;;10.90;99.90;;;;;;5045938;28;20051;-85
2023/02/22 11:51:43;;;;;;;5.68;1.23;;;10.90;99.90;;;;;;5037070;28;20037;-85
2023/02/22 11:54:28;;;;;;;0.93;0.93;;;11.00;99.90;;;;;;5020291;28;20048;-84
2023/02/22 11:57:06;;;;;;;0.98;0.95;;;11.00;99.90;;;;;;5037353;28;20152;-84
2023/02/22 11:59:37;;;;;;;3.20;2.83;;;11.10;99.90;;;;;;5046304;28;20444;-85
2023/02/22 12:02:41;;;;;;;1.08;0.98;;;11.10;99.90;;;;;;5035599;28;20151;-86
2023/02/22 12:05:17;;;;;;;1.10;1.10;;;11.00;99.90;;;;;;5045661;28;20083;-84
2023/02/22 12:07:47;;;;;;;3.95;2.38;;;10.90;99.90;;;;;;5040455;28;20069;-84
2023/02/22 12:10:54;;;;;;;1.80;1.70;;;11.00;99.90;;;;;;5040413;28;20056;-82
2023/02/22 12:13:47;;;;;;;2.65;2.45;;;10.90;99.90;;;;;;5028091;28;20053;-83
2023/02/22 12:16:16;;;;;;;0.57;0.57;;;10.80;99.90;;;;;;5040307;28;20041;-83
2023/02/22 12:18:58;;;;;;;1.60;0.95;;;10.80;99.90;;;;;;5028405;28;20487;-83
2023/02/22 12:21:28;;;;;;;1.42;1.33;;;11.10;99.90;;;;;;5044306;28;20049;-83
2023/02/22 12:24:01;;;;;;;0.50;0.50;;;10.90;99.90;;;;;;5039707;28;20098;-83
2023/02/22 12:26:36;;;;;;;0.63;0.63;;;11.00;99.90;;;;;;5023868;28;20040;-83
2023/02/22 12:29:32;;;;;;;1.83;1.35;;;10.90;99.90;;;;;;5037434;28;20100;-83
2023/02/22 12:32:16;;;;;;;3.17;2.13;;;11.00;99.90;;;;;;5038421;28;20045;-82
2023/02/22 12:34:51;;;;;;;4.85;4.13;;;11.10;99.90;;;;;;5042508;28;20048;-83
2023/02/22 12:37:27;;;;;;;2.47;1.95;;;11.10;99.90;;;;;;5037545;28;20041;-83
2023/02/22 12:39:53;;;;;;;;;;;11.50;99.90;;;;;;5037143;28;20376;-83
2023/02/22 12:42:49;;;;;;;1.63;1.52;;;11.30;99.90;;;;;;5041737;28;19932;-82
2023/02/22 12:45:35;;;;;;;1.67;1.58;;;11.40;99.90;;;;;;5039772;28;20052;-82
2023/02/22 12:48:09;;;;;;;2.75;1.80;;;11.40;99.90;;;;;;5036164;28;20041;-82
2023/02/22 12:50:36;;;;;;;0.75;0.60;;;11.50;99.90;;;;;;5024031;28;20048;-83
2023/02/22 12:53:34;;;;;;;2.42;1.77;;;11.60;99.90;;;;;;5033750;28;20398;-83
2023/02/22 12:56:28;;;;;;;1.02;0.98;;;11.60;99.90;;;;;;5040317;28;20552;-83
2023/02/22 12:58:58;;;;;;;1.30;1.10;;;11.70;99.90;;;;;;5026347;28;20052;-83
2023/02/22 13:01:31;;;;;;;0.85;0.85;;;11.60;99.90;;;;;;5035256;28;20103;-83
2023/02/22 13:03:57;;;;;;;2.03;1.85;;;11.60;99.90;;;;;;5041718;28;20037;-83
2023/02/22 13:06:40;;;;;;;4.80;4.35;;;11.50;99.90;;;;;;5010548;28;20043;-83
2023/02/22 13:09:33;;;;;;;1.83;1.73;;;11.30;99.90;;;;;;5039273;28;20550;-82
2023/02/22 13:12:20;;;;;;;17.08;4.60;;;11.30;99.90;;;;;;5040214;28;20037;-83
2023/02/22 13:14:57;;;;;;;2.47;2.25;;;11.30;99.90;;;;;;5020193;28;20045;-83
2023/02/22 13:17:39;;;;;;;1.58;1.48;;;11.40;99.90;;;;;;5026959;28;20398;-82
2023/02/22 13:20:25;;;;;;;9.20;2.00;;;11.20;99.90;;;;;;5036993;28;20152;-82
2023/02/22 13:22:56;;;;;;;1.45;1.38;;;11.20;99.90;;;;;;5040108;28;20454;-82